createdAt,value
2019-01-03T00:00:46.572Z,1.70
2019-01-03T00:04:24.588Z,1.70
2019-01-03T00:07:48.543Z,1.70
2019-01-03T00:11:15.233Z,1.70
2019-01-03T00:14:41.456Z,1.80
2019-01-03T00:18:11.400Z,1.70
2019-01-03T00:21:47.269Z,1.80
2019-01-03T00:25:09.178Z,1.80
2019-01-03T00:28:35.997Z,1.80
2019-01-03T00:32:08.536Z,1.80
2019-01-03T00:35:31.347Z,1.90
2019-01-03T00:38:58.103Z,1.90
2019-01-03T00:42:28.321Z,1.90
2019-01-03T00:46:04.419Z,1.90
2019-01-03T00:49:31.088Z,1.80
2019-01-03T00:53:00.960Z,1.80
2019-01-03T00:56:23.615Z,1.70
2019-01-03T01:00:02.863Z,1.70
2019-01-03T01:03:33.242Z,1.70
2019-01-03T01:07:00.185Z,1.70
2019-01-03T01:10:22.806Z,1.70
2019-01-03T01:13:46.158Z,1.80
2019-01-03T01:17:22.286Z,1.80
2019-01-03T01:20:55.404Z,1.80
2019-01-03T01:24:16.169Z,1.70
2019-01-03T01:27:38.579Z,1.60
2019-01-03T01:31:01.323Z,1.60
2019-01-03T01:34:23.942Z,1.60
2019-01-03T01:37:53.830Z,1.60
2019-01-03T01:41:17.759Z,1.60
2019-01-03T01:44:56.686Z,1.50
2019-01-03T01:48:20.441Z,1.50
2019-01-03T01:51:44.419Z,1.40
2019-01-03T01:55:14.947Z,1.30
2019-01-03T01:58:44.607Z,1.30
2019-01-03T02:02:08.581Z,1.30
2019-01-03T02:05:47.735Z,1.20
2019-01-03T02:09:30.037Z,1.30
2019-01-03T02:12:52.218Z,1.30
2019-01-03T02:16:19.138Z,1.40
2019-01-03T02:19:43.124Z,1.60
2019-01-03T02:23:09.835Z,1.60
2019-01-03T02:26:39.592Z,1.50
2019-01-03T02:30:15.638Z,1.40
2019-01-03T02:33:38.345Z,1.40
2019-01-03T02:37:00.841Z,1.50
2019-01-03T02:40:24.060Z,1.40
2019-01-03T02:43:43.553Z,1.40
2019-01-03T02:47:19.209Z,1.30
2019-01-03T02:50:54.658Z,1.40
2019-01-03T02:54:18.612Z,1.30
2019-01-03T02:57:41.070Z,1.30
2019-01-03T03:01:20.417Z,1.30
2019-01-03T03:04:47.125Z,1.30
2019-01-03T03:08:11.035Z,1.30
2019-01-03T03:11:34.015Z,1.30
2019-01-03T03:15:02.841Z,1.30
2019-01-03T03:18:26.030Z,1.30
2019-01-03T03:21:38.196Z,1.20
2019-01-03T03:24:59.964Z,1.20
2019-01-03T03:28:30.183Z,1.20
2019-01-03T03:31:53.030Z,1.20
2019-01-03T03:35:22.664Z,1.20
2019-01-03T03:38:55.686Z,1.20
2019-01-03T03:42:37.762Z,1.30
2019-01-03T03:45:59.892Z,1.30
2019-01-03T03:49:35.447Z,1.30
2019-01-03T03:53:08.337Z,1.20
2019-01-03T03:56:32.515Z,1.10
2019-01-03T03:59:56.296Z,1.00
2019-01-03T04:03:18.717Z,1.00
2019-01-03T04:06:48.470Z,1.00
2019-01-03T04:10:11.316Z,0.90
2019-01-03T04:13:34.039Z,0.90
2019-01-03T04:17:06.733Z,0.90
2019-01-03T04:20:29.149Z,0.90
2019-01-03T04:24:08.624Z,0.90
2019-01-03T04:27:31.582Z,1.00
2019-01-03T04:31:04.493Z,1.10
2019-01-03T04:34:31.518Z,1.10
2019-01-03T04:37:54.346Z,1.10
2019-01-03T04:41:29.643Z,1.20
2019-01-03T04:44:53.492Z,1.10
2019-01-03T04:48:35.273Z,1.10
2019-01-03T04:52:17.303Z,1.10
2019-01-03T04:55:39.937Z,1.00
2019-01-03T04:59:04.090Z,0.90
2019-01-03T05:02:33.806Z,0.80
2019-01-03T05:05:57.627Z,0.70
2019-01-03T05:09:36.636Z,0.60
2019-01-03T05:13:04.385Z,0.60
2019-01-03T05:16:28.274Z,0.50
2019-01-03T05:19:52.982Z,0.50
2019-01-03T05:23:24.896Z,0.50
2019-01-03T05:26:51.848Z,0.50
2019-01-03T05:30:18.372Z,0.40
2019-01-03T05:33:40.217Z,0.50
2019-01-03T05:37:02.672Z,0.50
2019-01-03T05:40:38.425Z,0.50
2019-01-03T05:44:01.165Z,0.60
2019-01-03T05:47:37.112Z,0.70
2019-01-03T05:51:01.100Z,0.70
2019-01-03T05:54:43.177Z,0.70
2019-01-03T05:58:05.679Z,0.70
2019-01-03T06:01:35.514Z,0.70
2019-01-03T06:04:58.266Z,0.80
2019-01-03T06:08:40.654Z,0.70
2019-01-03T06:12:13.114Z,0.70
2019-01-03T06:15:55.149Z,0.70
2019-01-03T06:19:24.743Z,0.70
2019-01-03T06:22:48.683Z,0.70
2019-01-03T06:26:24.889Z,0.70
2019-01-03T06:29:55.031Z,0.60
2019-01-03T06:33:18.811Z,0.50
2019-01-03T06:36:41.515Z,0.40
2019-01-03T06:40:04.186Z,0.50
2019-01-03T06:43:40.101Z,0.50
2019-01-03T06:47:03.909Z,0.50
2019-01-03T06:50:26.706Z,0.40
2019-01-03T06:53:49.328Z,0.40
2019-01-03T06:57:13.230Z,0.40
2019-01-03T07:00:29.590Z,0.40
2019-01-03T07:03:52.218Z,0.50
2019-01-03T07:07:21.988Z,0.60
2019-01-03T07:11:01.207Z,0.60
2019-01-03T07:14:43.516Z,0.60
2019-01-03T07:18:12.733Z,0.60
2019-01-03T07:21:39.824Z,0.60
2019-01-03T07:25:15.849Z,0.60
2019-01-03T07:28:38.681Z,0.60
2019-01-03T07:32:01.569Z,0.60
2019-01-03T07:35:28.472Z,0.60
2019-01-03T07:39:07.532Z,0.60
2019-01-03T07:42:31.647Z,0.60
2019-01-03T07:45:55.583Z,0.60
2019-01-03T07:49:18.309Z,0.60
2019-01-03T07:52:40.749Z,0.80
2019-01-03T07:56:00.745Z,1.10
2019-01-03T07:59:18.800Z,1.10
2019-01-03T08:02:45.713Z,1.20
2019-01-03T08:06:12.411Z,1.20
2019-01-03T08:09:48.239Z,1.40
2019-01-03T08:13:13.539Z,1.40
2019-01-03T08:16:43.664Z,1.40
2019-01-03T08:20:06.358Z,1.40
2019-01-03T08:23:45.814Z,1.50
2019-01-03T08:27:06.904Z,1.50
2019-01-03T08:30:20.164Z,1.70
2019-01-03T08:33:55.896Z,1.70
2019-01-03T08:37:18.012Z,1.70
2019-01-03T08:40:42.509Z,1.70
2019-01-03T08:44:21.497Z,1.70
2019-01-03T08:47:45.407Z,1.80
2019-01-03T08:51:07.999Z,2.00
2019-01-03T08:54:33.993Z,2.20
2019-01-03T08:58:13.091Z,2.40
2019-01-03T09:01:36.967Z,2.50
2019-01-03T09:05:03.718Z,2.60
2019-01-03T09:08:36.609Z,2.50
2019-01-03T09:12:00.593Z,2.60
2019-01-03T09:15:22.778Z,2.70
2019-01-03T09:18:45.521Z,2.70
2019-01-03T09:22:06.373Z,2.60
2019-01-03T09:25:30.488Z,2.40
2019-01-03T09:28:52.966Z,2.40
2019-01-03T09:32:22.981Z,2.50
2019-01-03T09:35:46.850Z,2.60
2019-01-03T09:39:16.872Z,2.90
2019-01-03T09:42:49.468Z,3.20
2019-01-03T09:45:55.029Z,3.30
2019-01-03T09:49:00.074Z,3.60
2019-01-03T09:52:05.572Z,4.00
2019-01-03T09:55:10.433Z,4.10
2019-01-03T09:58:15.354Z,4.20
2019-01-03T10:01:20.278Z,4.20
2019-01-03T10:04:25.272Z,4.20
2019-01-03T10:07:30.398Z,4.20
2019-01-03T10:10:36.905Z,4.00
2019-01-03T10:13:41.725Z,3.70
2019-01-03T10:16:46.910Z,3.70
2019-01-03T10:19:52.011Z,3.80
2019-01-03T10:22:57.109Z,4.00
2019-01-03T10:26:02.136Z,4.10
2019-01-03T10:29:07.110Z,4.10
2019-01-03T10:32:12.099Z,4.20
2019-01-03T10:35:17.109Z,4.50
2019-01-03T10:38:22.352Z,4.70
2019-01-03T10:41:27.350Z,4.70
2019-01-03T10:44:32.314Z,4.80
2019-01-03T10:47:37.575Z,4.90
2019-01-03T10:50:42.722Z,4.80
2019-01-03T10:53:47.689Z,4.80
2019-01-03T10:56:52.539Z,5.00
2019-01-03T10:59:57.841Z,4.90
2019-01-03T11:03:02.807Z,4.80
2019-01-03T11:06:07.812Z,4.80
2019-01-03T11:09:12.760Z,4.90
2019-01-03T11:12:17.762Z,5.00
2019-01-03T11:15:22.671Z,5.20
2019-01-03T11:18:27.617Z,5.20
2019-01-03T11:21:32.693Z,5.20
2019-01-03T11:24:37.848Z,6.10
2019-01-03T11:27:42.920Z,7.40
2019-01-03T11:30:47.870Z,8.10
2019-01-03T11:33:52.918Z,8.10
2019-01-03T11:36:58.189Z,7.40
2019-01-03T11:40:03.254Z,7.50
2019-01-03T11:43:08.276Z,9.60
2019-01-03T11:46:13.378Z,11.40
2019-01-03T11:49:18.179Z,12.40
2019-01-03T11:52:22.898Z,14.10
2019-01-03T11:55:27.884Z,15.70
2019-01-03T11:58:33.084Z,15.50
2019-01-03T12:01:38.253Z,15.30
2019-01-03T12:04:43.354Z,14.80
2019-01-03T12:07:48.350Z,13.90
2019-01-03T12:10:53.252Z,12.40
2019-01-03T12:13:58.123Z,11.50
2019-01-03T12:17:06.421Z,11.10
2019-01-03T12:20:11.405Z,10.70
2019-01-03T12:23:16.692Z,10.70
2019-01-03T12:26:21.431Z,10.40
2019-01-03T12:29:26.579Z,10.30
2019-01-03T12:32:31.694Z,10.30
2019-01-03T12:35:36.354Z,9.90
2019-01-03T12:38:41.127Z,9.50
2019-01-03T12:41:45.995Z,9.20
2019-01-03T12:44:50.948Z,9.20
2019-01-03T12:47:55.910Z,9.30
2019-01-03T12:51:00.996Z,9.50
2019-01-03T12:54:05.991Z,11.30
2019-01-03T12:57:11.301Z,13.80
2019-01-03T13:00:16.479Z,15.70
2019-01-03T13:03:21.722Z,15.60
2019-01-03T13:06:26.569Z,14.80
2019-01-03T13:09:31.662Z,14.00
2019-01-03T13:12:36.759Z,13.20
2019-01-03T13:15:42.167Z,12.10
2019-01-03T13:18:47.211Z,10.70
2019-01-03T13:21:52.026Z,10.00
2019-01-03T13:24:56.986Z,9.40
2019-01-03T13:28:02.125Z,8.80
2019-01-03T13:31:25.964Z,9.60
2019-01-03T13:34:31.263Z,9.80
2019-01-03T13:37:36.206Z,9.20
2019-01-03T13:40:41.429Z,8.30
2019-01-03T13:43:46.595Z,7.30
2019-01-03T13:46:51.702Z,6.70
2019-01-03T13:49:56.569Z,6.10
2019-01-03T13:53:01.577Z,5.70
2019-01-03T13:56:06.581Z,5.50
2019-01-03T13:59:11.688Z,5.20
2019-01-03T14:02:17.004Z,4.80
2019-01-03T14:05:21.896Z,4.50
2019-01-03T14:08:26.730Z,4.30
2019-01-03T14:11:31.427Z,4.10
2019-01-03T14:14:36.139Z,3.90
2019-01-03T14:17:41.159Z,3.70
2019-01-03T14:20:45.838Z,3.50
2019-01-03T14:23:50.622Z,3.40
2019-01-03T14:26:55.324Z,3.40
2019-01-03T14:30:00.177Z,3.30
2019-01-03T14:33:05.303Z,3.20
2019-01-03T14:36:10.268Z,3.20
2019-01-03T14:39:17.351Z,3.20
2019-01-03T14:42:22.420Z,3.00
2019-01-03T14:45:27.072Z,3.00
2019-01-03T14:48:32.688Z,3.00
2019-01-03T14:51:37.989Z,3.00
2019-01-03T14:54:43.210Z,3.00
2019-01-03T14:57:48.137Z,2.90
2019-01-03T15:00:52.878Z,2.90
2019-01-03T15:03:57.666Z,2.80
2019-01-03T15:07:02.681Z,2.80
2019-01-03T15:10:07.869Z,2.70
2019-01-03T15:13:13.141Z,2.80
2019-01-03T15:16:18.070Z,2.80
2019-01-03T15:19:23.138Z,2.80
2019-01-03T15:22:28.130Z,2.80
2019-01-03T15:25:32.964Z,2.70
2019-01-03T15:28:38.080Z,2.70
2019-01-03T15:31:43.095Z,2.80
2019-01-03T15:34:48.341Z,2.90
2019-01-03T15:37:53.308Z,2.90
2019-01-03T15:40:58.402Z,2.90
2019-01-03T15:44:03.417Z,2.90
2019-01-03T15:47:08.714Z,2.80
2019-01-03T15:50:13.749Z,2.80
2019-01-03T15:53:18.739Z,2.70
2019-01-03T15:56:23.398Z,2.70
2019-01-03T15:59:28.150Z,2.70
2019-01-03T16:02:32.796Z,2.70
2019-01-03T16:05:37.816Z,2.70
2019-01-03T16:08:42.535Z,2.70
2019-01-03T16:11:47.275Z,2.70
2019-01-03T16:14:51.973Z,2.70
2019-01-03T16:17:57.010Z,2.70
2019-01-03T16:21:03.173Z,2.70
2019-01-03T16:24:08.056Z,2.60
2019-01-03T16:27:13.002Z,2.80
2019-01-03T16:30:25.490Z,2.80
2019-01-03T16:33:30.489Z,2.90
2019-01-03T16:36:35.424Z,2.90
2019-01-03T16:39:40.429Z,2.80
2019-01-03T16:42:45.844Z,2.80
2019-01-03T16:45:50.775Z,2.80
2019-01-03T16:48:55.837Z,2.90
2019-01-03T16:52:00.824Z,2.90
2019-01-03T16:55:05.793Z,2.80
2019-01-03T16:58:10.985Z,2.80
2019-01-03T17:01:16.090Z,2.70
2019-01-03T17:04:21.010Z,2.70
2019-01-03T17:07:25.958Z,2.60
2019-01-03T17:10:30.982Z,2.50
2019-01-03T17:13:36.112Z,2.40
2019-01-03T17:16:42.235Z,2.40
2019-01-03T17:20:06.264Z,2.40
2019-01-03T17:23:11.364Z,2.40
2019-01-03T17:26:16.276Z,2.50
2019-01-03T17:29:21.258Z,2.50
2019-01-03T17:32:26.472Z,2.60
2019-01-03T17:35:31.531Z,2.70
2019-01-03T17:38:36.667Z,2.70
2019-01-03T17:41:41.626Z,2.70
2019-01-03T17:44:49.478Z,2.70
2019-01-03T17:47:54.554Z,2.80
2019-01-03T17:50:59.839Z,2.80
2019-01-03T17:54:04.836Z,2.90
2019-01-03T17:57:09.852Z,2.80
2019-01-03T18:00:17.797Z,2.80
2019-01-03T18:03:25.935Z,2.80
2019-01-03T18:06:31.128Z,2.90
2019-01-03T18:09:36.265Z,2.90
2019-01-03T18:12:41.414Z,2.90
2019-01-03T18:15:46.742Z,2.90
2019-01-03T18:18:51.600Z,2.90
2019-01-03T18:21:56.738Z,2.90
2019-01-03T18:25:02.018Z,2.80
2019-01-03T18:28:06.740Z,2.60
2019-01-03T18:31:11.506Z,2.40
2019-01-03T18:34:16.245Z,2.30
2019-01-03T18:37:21.012Z,2.10
2019-01-03T18:40:25.763Z,1.80
2019-01-03T18:43:30.525Z,1.70
2019-01-03T18:46:35.320Z,1.80
2019-01-03T18:49:40.506Z,1.90
2019-01-03T18:52:45.540Z,2.00
2019-01-03T18:55:50.372Z,2.00
2019-01-03T18:58:55.131Z,2.10
2019-01-03T19:01:59.894Z,2.00
2019-01-03T19:05:04.661Z,2.10
2019-01-03T19:08:09.442Z,2.10
2019-01-03T19:11:14.260Z,2.20
2019-01-03T19:14:18.956Z,2.30
2019-01-03T19:17:23.974Z,2.30
2019-01-03T19:20:30.865Z,2.30
2019-01-03T19:23:35.968Z,2.30
2019-01-03T19:26:41.124Z,2.40
2019-01-03T19:29:46.136Z,2.40
2019-01-03T19:32:51.038Z,2.40
2019-01-03T19:35:56.152Z,2.40
2019-01-03T19:39:01.405Z,2.40
2019-01-03T19:42:08.057Z,2.40
2019-01-03T19:45:13.142Z,2.30
2019-01-03T19:48:17.876Z,2.20
2019-01-03T19:51:22.932Z,2.00
2019-01-03T19:54:28.898Z,1.80
2019-01-03T19:57:34.045Z,1.80
2019-01-03T20:00:38.990Z,1.70
2019-01-03T20:03:43.971Z,1.70
2019-01-03T20:07:07.871Z,1.50
2019-01-03T20:10:13.212Z,1.50
2019-01-03T20:13:18.178Z,1.40
2019-01-03T20:16:23.135Z,1.40
2019-01-03T20:19:28.105Z,1.40
2019-01-03T20:22:33.239Z,1.40
2019-01-03T20:25:37.965Z,1.30
2019-01-03T20:28:43.047Z,1.30
2019-01-03T20:31:47.762Z,1.30
2019-01-03T20:34:52.671Z,1.30
2019-01-03T20:37:57.478Z,1.20
2019-01-03T20:41:02.245Z,1.10
2019-01-03T20:44:07.077Z,1.00
2019-01-03T20:47:11.897Z,1.10
2019-01-03T20:50:16.648Z,1.20
2019-01-03T20:53:21.674Z,1.10
2019-01-03T20:56:26.640Z,1.20
2019-01-03T20:59:32.035Z,1.20
2019-01-03T21:02:36.996Z,1.30
2019-01-03T21:05:41.761Z,1.40
2019-01-03T21:08:46.543Z,1.40
2019-01-03T21:11:51.239Z,1.40
2019-01-03T21:14:56.363Z,1.40
2019-01-03T21:18:01.088Z,1.40
2019-01-03T21:21:06.002Z,1.30
2019-01-03T21:24:10.881Z,1.30
2019-01-03T21:27:15.682Z,1.30
2019-01-03T21:30:21.083Z,1.20
2019-01-03T21:33:25.846Z,1.20
2019-01-03T21:36:30.572Z,1.20
2019-01-03T21:39:35.518Z,1.10
2019-01-03T21:42:40.454Z,1.10
2019-01-03T21:45:45.201Z,1.00
2019-01-03T21:48:53.063Z,0.90
2019-01-03T21:51:56.400Z,0.90
2019-01-03T21:55:01.175Z,0.80
2019-01-03T21:58:05.949Z,0.80
2019-01-03T22:01:10.788Z,0.70
2019-01-03T22:04:15.646Z,0.70
2019-01-03T22:07:20.469Z,0.60
2019-01-03T22:10:25.236Z,0.70
2019-01-03T22:13:29.983Z,0.50
2019-01-03T22:16:34.816Z,0.50
2019-01-03T22:19:40.102Z,0.50
2019-01-03T22:22:45.379Z,0.50
2019-01-03T22:25:50.508Z,0.50
2019-01-03T22:28:55.254Z,0.50
2019-01-03T22:31:59.933Z,0.50
2019-01-03T22:35:05.048Z,0.50
2019-01-03T22:38:09.830Z,0.50
2019-01-03T22:41:14.676Z,0.40
2019-01-03T22:44:19.383Z,0.50
2019-01-03T22:47:24.904Z,0.60
2019-01-03T22:50:29.689Z,0.70
2019-01-03T22:53:34.637Z,0.70
2019-01-03T22:56:40.179Z,0.70
2019-01-03T22:59:45.062Z,0.70
2019-01-03T23:02:49.800Z,0.70
2019-01-03T23:05:55.451Z,0.70
2019-01-03T23:09:00.317Z,0.70
2019-01-03T23:12:05.222Z,0.80
2019-01-03T23:15:09.943Z,0.90
2019-01-03T23:18:16.008Z,0.90
2019-01-03T23:21:20.788Z,0.90
2019-01-03T23:24:25.809Z,0.90
2019-01-03T23:27:30.789Z,0.90
2019-01-03T23:30:35.668Z,1.00
2019-01-03T23:33:40.595Z,1.00
2019-01-03T23:36:45.354Z,1.00
2019-01-03T23:39:50.368Z,1.00
2019-01-03T23:42:55.287Z,1.00
2019-01-03T23:46:00.136Z,0.90
2019-01-03T23:49:05.269Z,0.80
2019-01-03T23:52:10.278Z,0.80
2019-01-03T23:55:15.341Z,0.70
2019-01-03T23:58:20.455Z,0.60
